Hovedside
METAR-TAF:

METAR-TAF

Lufthavner :

Mersa Matruh, Egypt

breddegrad: 31-20N, lengdegrad: 027-13E, høyde over havet: 25 m

Gjeldene værobservasjon

Denne rapporten ble laget for 50 minutter siden, klokken 20:00 UTC
Vind 4 kt fra Øst-sørøst
Temperatur 18°C
Luftfuktighet 64%
Trykk 1017 hPa
Sikt 10 km eller mer
ingen skyer under 1500 m og ingen bygeskyer

METAR: HEMM 282000Z 12004KT CAVOK 18/11 Q1017 NOSIG

Tid: 22:50 (20:50 UTC)

Varsel

Denne rapporten ble laget for 3 timer og 50 minutter siden, klokken 17:00 UTC
Varsel gyldig fra 28. klokken 18 UTC til 29. klokken 24 UTC
Vind 8 kt fra Sør-sørøst med vindkast opp mot 18 kt
Sikt 10 km eller mer
ingen skyer under 1500 m og ingen bygeskyer
Midlertidig
fra 29. klokken 09 UTC til 29. klokken 14 UTC
Sikt: 3000 m
sand

TAF: HEMM 281700Z 2818/2924 15008G18KT CAVOK TEMPO 2909/2914 3000 SA NSC

Værobservasjoner og værvarsel for over 4000 flyplasser (METAR- og TAF-rapporter).

Tilgjengelige stasjoner er representert av de røde og gule prikkene på kartet.

Hold musepekeren over prikken for å se navnet på stasjonen.

Klikk så for å se værobservasjoner og -varsler.

For å forandre kartet kan du klikke på den grønne knappen med svart kryss for å zoome inn, på den grønne knappen med strek for å zoome ut, eller på de grønne pilene for å se tilstøtende kart.


METAR-TAF: